KSHN/SHN METAR and TAF weather

Enter ICAO airport designator
Station Type Date Time Source
KSHN METAR 2024/02/26 17:53 UTC NOAA

KSHN 261753Z AUTO 26009KT 10SM SCT009 02/01 A2980 RMK AO2 SLP096 60001 T00220011 10028 20006 51010


Station Type Date Time Source
KSHN Decoded METAR 2024/02/26 17:53 UTC NOAA

SHELTON SANDERSON FIELD, WA, United States (KSHN) 47-14N 123-08W 82M
Feb 26, 2024 - 12:53 PM EST / 2024.02.26 1753 UTC
Wind: from the W (260 degrees) at 10 MPH (9 KT):0
Visibility: 10 mile(s):0
Sky conditions: partly cloudy
Temperature: 36.0 F (2.2 C)
Dew Point: 34.0 F (1.1 C)
Relative Humidity: 92%
Pressure (altimeter): 29.8 in. Hg (1009 hPa)
Pressure tendency: 0.03 inches (1.0 hPa) higher than three hours ago
ob: KSHN 261753Z AUTO 26009KT 10SM SCT009 02/01 A2980 RMK AO2 SLP096 60001 T00220011 10028 20006 51010
cycle: 18

Station Type Date Time Source
KSHN TAF UTC NOAA

Error!

Example: see airport list